| time (UTC) | temp C | wind direction | speed KPH | gust KPH | rain 1hr cm | rain 24hr cm | rain mn cm | humidity % | barometer mb |
| 20260509212359 | 12 | 148 | 9.7 | 6.4 | 0.00 | 0.15 | 0.00 | 96 | 995.1 |
| 20260509210954 | 12 | 187 | 11.3 | 9.7 | 0.00 | 0.15 | 0.00 | 98 | 994.6 |
| 20260509205554 | 12 | 143 | 12.9 | 12.9 | 0.00 | 0.15 | 0.00 | 100 | 994.3 |
| 20260509204152 | 12 | 142 | 8.0 | 4.8 | 0.00 | 0.15 | 0.00 | 100 | 994.2 |
| 20260509202745 | 11 | 176 | 9.7 | 11.3 | 0.00 | 0.15 | 0.00 | 100 | 994.0 |
| 20260509201341 | 11 | 193 | 3.2 | 3.2 | 0.00 | 0.15 | 0.00 | 100 | 993.7 |
| 20260509195937 | 11 | 207 | 6.4 | 3.2 | 0.00 | 0.15 | 0.00 | 100 | 993.4 |
| 20260509194534 | 10 | 183 | 4.8 | 3.2 | 0.00 | 0.15 | 0.00 | 100 | 993.2 |
| 20260509193130 | 10 | 188 | 6.4 | 8.0 | 0.00 | 0.15 | 0.00 | 100 | 992.9 |
| 20260509191727 | 10 | 262 | 0.0 | 3.2 | 0.00 | 0.15 | 0.00 | 100 | 992.2 |
| 20260509190326 | 10 | 217 | 0.0 | 0.0 | 0.00 | 0.15 | 0.00 | 100 | 991.8 |
| 20260509184921 | 10 | 281 | 3.2 | 1.6 | 0.00 | 0.15 | 0.00 | 100 | 991.7 |
| 20260509183517 | 10 | 287 | 1.6 | 1.6 | 0.00 | 0.15 | 0.00 | 100 | 991.6 |
| 20260509182112 | 11 | 285 | 0.0 | 0.0 | 0.00 | 0.15 | 0.00 | 100 | 991.7 |
| 20260509180709 | 11 | 273 | 1.6 | 1.6 | 0.00 | 0.15 | 0.00 | 100 | 991.3 |
| 20260509175307 | 11 | 294 | 0.0 | 0.0 | 0.00 | 0.15 | 0.00 | 100 | 991.2 |
| 20260509173902 | 11 | 294 | 0.0 | 0.0 | 0.00 | 0.15 | 0.00 | 100 | 991.1 |
| 20260509172502 | 11 | 322 | 1.6 | 0.0 | 0.00 | 0.15 | 0.00 | 100 | 990.9 |
| 20260509171058 | 11 | 124 | 0.0 | 0.0 | 0.00 | 0.15 | 0.00 | 100 | 991.0 |
| 20260509165658 | 11 | 222 | 0.0 | 0.0 | 0.00 | 0.15 | 0.00 | 100 | 990.9 |
| 20260509164249 | 11 | 205 | 1.6 | 3.2 | 0.00 | 0.15 | 0.00 | 100 | 990.7 |
| 20260509161443 | 11 | 152 | 3.2 | 6.4 | 0.00 | 0.15 | 0.00 | 100 | 990.6 |
| 20260509160039 | 12 | 208 | 4.8 | 4.8 | 0.00 | 0.15 | 0.00 | 100 | 990.5 |
| 20260509154636 | 12 | 159 | 6.4 | 0.0 | 0.00 | 0.15 | 0.00 | 100 | 990.9 |
| 20260509153232 | 12 | 200 | 8.0 | 3.2 | 0.00 | 0.15 | 0.00 | 100 | 990.7 |
| 20260509151832 | 12 | 146 | 8.0 | 6.4 | 0.00 | 0.15 | 0.00 | 100 | 990.6 |
| 20260509150426 | 12 | 186 | 14.5 | 11.3 | 0.00 | 0.15 | 0.00 | 100 | 990.7 |
| 20260509143618 | 12 | 197 | 9.7 | 9.7 | 0.00 | 0.15 | 0.00 | 66 | 990.5 |
| 20260509142213 | 12 | 277 | 4.8 | 3.2 | 0.00 | 0.15 | 0.00 | 63 | 989.9 |
| 20260509140810 | 12 | 291 | 4.8 | 4.8 | 0.00 | 0.15 | 0.00 | 65 | 990.0 |
| 20260509135406 | 12 | 297 | 6.4 | 8.0 | 0.00 | 0.15 | 0.00 | 66 | 989.9 |
| 20260509134006 | 12 | 284 | 4.8 | 4.8 | 0.00 | 0.15 | 0.00 | 65 | 989.8 |
| 20260509132604 | 12 | 304 | 6.4 | 6.4 | 0.00 | 0.15 | 0.00 | 62 | 989.9 |
| 20260509125754 | 13 | 315 | 6.4 | 4.8 | 0.00 | 0.15 | 0.00 | 60 | 990.4 |
| 20260509124354 | 13 | 319 | 8.0 | 8.0 | 0.00 | 0.15 | 0.00 | 60 | 990.4 |
| 20260509122947 | 14 | 291 | 9.7 | 12.9 | 0.00 | 0.15 | 0.00 | 57 | 990.6 |
| 20260509121547 | 15 | 316 | 12.9 | 8.0 | 0.00 | 0.15 | 0.00 | 54 | 990.7 |
| 20260509114739 | 14 | 345 | 4.8 | 11.3 | 0.00 | 0.53 | 0.15 | 56 | 991.2 |
| 20260509113335 | 13 | 305 | 8.0 | 9.7 | 0.00 | 0.53 | 0.15 | 59 | 991.5 |
| 20260509111932 | 13 | 335 | 9.7 | 6.4 | 0.00 | 0.53 | 0.15 | 58 | 991.7 |
| 20260509110527 | 14 | 304 | 8.0 | 4.8 | 0.00 | 0.53 | 0.15 | 59 | 991.8 |
| 20260509105124 | 14 | 290 | 11.3 | 8.0 | 0.00 | 0.53 | 0.15 | 57 | 992.1 |
| 20260509103720 | 14 | 301 | 8.0 | 9.7 | 0.00 | 0.53 | 0.15 | 60 | 992.1 |
| 20260509102317 | 14 | 318 | 9.7 | 4.8 | 0.00 | 0.53 | 0.15 | 59 | 992.3 |
| 20260509100913 | 14 | 277 | 9.7 | 6.4 | 0.00 | 0.53 | 0.15 | 58 | 992.1 |
| 20260509095513 | 15 | 274 | 9.7 | 9.7 | 0.00 | 0.53 | 0.15 | 58 | 992.3 |
| 20260509094108 | 14 | 293 | 9.7 | 11.3 | 0.00 | 0.53 | 0.15 | 58 | 992.2 |
| 20260509092704 | 14 | 290 | 14.5 | 12.9 | 0.00 | 0.53 | 0.15 | 58 | 992.0 |
| 20260509091300 | 13 | 295 | 12.9 | 12.9 | 0.00 | 0.53 | 0.15 | 62 | 992.0 |
| 20260509085857 | 13 | 260 | 9.7 | 6.4 | 0.00 | 0.53 | 0.15 | 68 | 992.1 |
| 20260509081651 | 10 | 305 | 6.4 | 8.0 | 0.00 | 0.53 | 0.15 | 100 | 991.8 |
| 20260509080250 | 11 | 339 | 6.4 | 6.4 | 0.00 | 0.53 | 0.15 | 100 | 991.9 |
| 20260509074842 | 11 | 222 | 3.2 | 0.0 | 0.00 | 0.53 | 0.15 | 100 | 991.7 |
| 20260509073439 | 11 | 225 | 1.6 | 0.0 | 0.00 | 0.53 | 0.15 | 100 | 991.9 |
| 20260509072035 | 11 | 239 | 8.0 | 4.8 | 0.00 | 0.53 | 0.15 | 100 | 992.2 |
| 20260509070632 | 11 | 238 | 4.8 | 3.2 | 0.00 | 0.53 | 0.15 | 100 | 992.0 |
| 20260509065227 | 11 | 94 | 6.4 | 3.2 | 0.00 | 0.53 | 0.15 | 100 | 991.8 |
| 20260509063825 | 11 | 257 | 1.6 | 3.2 | 0.00 | 0.53 | 0.15 | 100 | 991.7 |
| 20260509062424 | 12 | 302 | 0.0 | 0.0 | 0.00 | 0.53 | 0.15 | 100 | 991.5 |
| 20260509061017 | 12 | 346 | 1.6 | 0.0 | 0.00 | 0.53 | 0.15 | 100 | 991.4 |
| 20260509055616 | 12 | 34 | 0.0 | 0.0 | 0.00 | 0.53 | 0.15 | 100 | 991.3 |
| 20260509054213 | 12 | 70 | 8.0 | 9.7 | 0.00 | 0.53 | 0.15 | 100 | 991.0 |
| 20260509052813 | 12 | 104 | 1.6 | 4.8 | 0.00 | 0.53 | 0.15 | 100 | 991.3 |
| 20260509051409 | 13 | 153 | 1.6 | 3.2 | 0.00 | 0.53 | 0.15 | 100 | 991.3 |
| 20260509050006 | 13 | 77 | 4.8 | 4.8 | 0.00 | 0.53 | 0.15 | 100 | 991.2 |
| 20260509044604 | 13 | 49 | 8.0 | 9.7 | 0.00 | 0.53 | 0.15 | 100 | 991.4 |
| 20260509043202 | 13 | 8 | 8.0 | 4.8 | 0.00 | 0.53 | 0.15 | 100 | 991.6 |
| 20260509041759 | 13 | 39 | 14.5 | 11.3 | 0.00 | 0.53 | 0.15 | 100 | 991.7 |
| 20260509040353 | 13 | 82 | 12.9 | 16.1 | 0.00 | 0.53 | 0.15 | 100 | 991.6 |
| 20260509033546 | 13 | 65 | 16.1 | 12.9 | 0.00 | 0.53 | 0.15 | 100 | 991.8 |
| 20260509032143 | 14 | 63 | 14.5 | 14.5 | 0.00 | 0.53 | 0.15 | 100 | 991.8 |
| 20260509030739 | 14 | 51 | 14.5 | 9.7 | 0.00 | 0.53 | 0.15 | 98 | 991.7 |
| 20260509025336 | 14 | 86 | 16.1 | 17.7 | 0.00 | 0.53 | 0.15 | 96 | 991.7 |
| 20260509023932 | 15 | 49 | 14.5 | 16.1 | 0.00 | 0.53 | 0.15 | 95 | 991.6 |
| 20260509022529 | 15 | 46 | 16.1 | 19.3 | 0.00 | 0.53 | 0.15 | 93 | 991.3 |
| 20260509021126 | 15 | 60 | 14.5 | 12.9 | 0.00 | 0.53 | 0.15 | 92 | 991.3 |
| 20260509015721 | 15 | 69 | 14.5 | 17.7 | 0.00 | 0.53 | 0.15 | 92 | 991.4 |
| 20260509014317 | 15 | 96 | 14.5 | 14.5 | 0.00 | 0.53 | 0.15 | 93 | 991.4 |
| 20260509012914 | 15 | 83 | 12.9 | 19.3 | 0.00 | 0.53 | 0.15 | 94 | 991.5 |
| 20260509011509 | 16 | 82 | 12.9 | 14.5 | 0.00 | 0.53 | 0.15 | 89 | 991.6 |
| 20260509010106 | 16 | 45 | 9.7 | 8.0 | 0.00 | 0.53 | 0.15 | 83 | 991.8 |
| 20260509004702 | 16 | 23 | 9.7 | 11.3 | 0.00 | 0.53 | 0.15 | 84 | 991.8 |
| 20260509003259 | 15 | 17 | 9.7 | 11.3 | 0.00 | 0.53 | 0.15 | 87 | 991.6 |
| 20260509001855 | 15 | 28 | 16.1 | 11.3 | 0.00 | 0.53 | 0.15 | 87 | 991.6 |
| 20260509000451 | 15 | 52 | 11.3 | 8.0 | 0.00 | 0.53 | 0.15 | 90 | 991.9 |
| 20260508235047 | 15 | 28 | 9.7 | 14.5 | 0.00 | 0.53 | 0.15 | 93 | 992.2 |
| 20260508233644 | 15 | 30 | 16.1 | 16.1 | 0.00 | 0.53 | 0.15 | 94 | 992.0 |
| 20260508232239 | 15 | 32 | 8.0 | 8.0 | 0.00 | 0.53 | 0.15 | 96 | 992.5 |
| 20260508230836 | 15 | 3 | 8.0 | 6.4 | 0.00 | 0.53 | 0.15 | 98 | 992.6 |
| 20260508225432 | 14 | 13 | 8.0 | 8.0 | 0.00 | 0.53 | 0.15 | 100 | 992.9 |
| 20260508224029 | 14 | 1 | 9.7 | 8.0 | 0.00 | 0.53 | 0.15 | 100 | 992.7 |
| 20260508222624 | 13 | 347 | 8.0 | 9.7 | 0.00 | 0.53 | 0.15 | 100 | 992.8 |
| 20260508221222 | 13 | 312 | 8.0 | 6.4 | 0.00 | 0.53 | 0.15 | 100 | 992.7 |
| 20260508215818 | 13 | 346 | 8.0 | 4.8 | 0.00 | 0.53 | 0.15 | 100 | 992.8 |
| 20260508214418 | 12 | 330 | 4.8 | 8.0 | 0.00 | 0.53 | 0.15 | 100 | 992.6 |
| 20260508213013 | 12 | 291 | 6.4 | 6.4 | 0.00 | 0.53 | 0.15 | 100 | 992.5 |